Planalto, Brazil
Current Conditions -  °F | °C
As of 7:00 PM on Wednesday 22 Oct 2014 (Local Time) from SBQV Reporting Station
Drizzle Drizzle  
Wind Chill: 66°   Ceiling: 700
Heat Index: 66°   Visibility: 5mi
Dew Point: 66°   Wind: 13mph
Humidity: 100%   Direction: 110°ESE
Pressure: 30.15"   Gusts: NA
Location:  14.67°S, 40.47°W
Report Text: SBQV 222200Z 11011KT 8000 -DZ SCT006 BKN007 19/19 Q1021
Loading
Personal Weather Stations






























Interactive Weather Map
Tropical Storm Tracking
New forecast layout! Learn more

10-Day Weather Forecast

Advertisements
Track Severe Weather on mobile